Time;durP1;ratioP1;P1;durP2;ratioP2;P2;SDS_P1;SDS_P2;PMS_P1;PMS_P2;Temp;Humidity;BMP_temperature;BMP_pressure;BME280_temperature;BME280_humidity;BME280_pressure;Samples;Min_cycle;Max_cycle;Signal;HPM_P1;HPM_P2
2021/09/26 00:00:36;;;;;;;30.65;17.77;;;;;;;14.33;91.26;101515.72;5054667;28;20029;-72
2021/09/26 00:03:02;;;;;;;31.20;18.60;;;;;;;14.31;91.55;101517.63;5054209;28;20044;-76
2021/09/26 00:05:28;;;;;;;34.38;18.85;;;;;;;14.31;92.05;101506.97;5055104;28;20021;-76
2021/09/26 00:07:53;;;;;;;33.28;18.08;;;;;;;14.34;91.41;101511.28;5055324;28;20029;-63
2021/09/26 00:10:18;;;;;;;28.92;16.77;;;;;;;14.36;91.25;101507.59;5055417;28;20103;-61
2021/09/26 00:12:44;;;;;;;27.42;17.27;;;;;;;14.39;91.07;101512.78;5053926;28;20029;-63
2021/09/26 00:15:13;;;;;;;33.20;17.83;;;;;;;14.39;91.53;101507.44;5054208;28;20068;-76
2021/09/26 00:17:39;;;;;;;29.83;16.95;;;;;;;14.41;91.78;101507.34;5054693;28;20047;-63
2021/09/26 00:20:05;;;;;;;39.72;19.50;;;;;;;14.45;92.04;101511.63;5055193;28;20037;-75
2021/09/26 00:22:31;;;;;;;32.67;17.38;;;;;;;14.50;91.90;101517.56;5054948;28;20025;-76
2021/09/26 00:24:56;;;;;;;30.42;17.83;;;;;;;14.59;90.99;101513.56;5054505;28;20078;-75
2021/09/26 00:27:21;;;;;;;26.95;16.95;;;;;;;14.59;90.69;101514.44;5054249;28;20037;-73
2021/09/26 00:29:46;;;;;;;30.17;17.70;;;;;;;14.59;91.01;101510.88;5053978;28;20079;-70
2021/09/26 00:32:12;;;;;;;30.88;17.05;;;;;;;14.59;91.20;101506.44;5054413;28;20438;-73
2021/09/26 00:34:37;;;;;;;29.58;18.52;;;;;;;14.63;91.60;101509.81;5052546;28;20545;-72
2021/09/26 00:37:03;;;;;;;30.60;18.63;;;;;;;14.68;91.38;101507.81;5054295;28;20477;-66
2021/09/26 00:39:29;;;;;;;29.17;18.13;;;;;;;14.72;91.34;101508.50;5054284;28;20040;-74
2021/09/26 00:41:55;;;;;;;27.88;17.70;;;;;;;14.77;91.50;101502.94;5054855;28;20527;-64
2021/09/26 00:44:20;;;;;;;30.42;16.65;;;;;;;14.81;90.52;101496.47;5054230;28;20473;-63
2021/09/26 00:46:45;;;;;;;30.48;17.48;;;;;;;14.78;90.40;101502.00;5054055;28;20025;-76
2021/09/26 00:49:11;;;;;;;28.60;18.27;;;;;;;14.73;91.01;101504.88;5053032;28;20029;-75
2021/09/26 00:51:36;;;;;;;28.58;16.73;;;;;;;14.73;91.35;101508.44;5054732;28;20029;-76
2021/09/26 00:54:03;;;;;;;31.75;17.73;;;;;;;14.73;90.85;101503.09;5053194;28;20132;-63
2021/09/26 00:56:32;;;;;;;29.20;17.73;;;;;;;14.72;90.89;101506.69;5054085;28;20460;-61
2021/09/26 00:58:58;;;;;;;29.98;18.65;;;;;;;14.74;91.70;101501.28;5052736;28;20087;-60
2021/09/26 01:01:23;;;;;;;30.10;17.85;;;;;;;14.83;91.12;101514.13;5053127;28;20370;-68
2021/09/26 01:03:49;;;;;;;26.75;16.42;;;;;;;14.89;90.64;101511.16;5053222;28;20032;-67
2021/09/26 01:06:35;;;;;;;27.88;16.88;;;;;;;14.92;89.97;101507.47;5052603;28;20117;-60
2021/09/26 01:09:08;;;;;;;30.40;17.35;;;;;;;14.91;90.05;101508.38;5052785;28;20052;-76
2021/09/26 01:11:37;;;;;;;26.02;15.93;;;;;;;14.87;89.51;101498.84;5054160;28;20116;-63
2021/09/26 01:14:14;;;;;;;28.88;17.05;;;;;;;14.79;89.94;101504.56;5054118;28;20028;-73
2021/09/26 01:16:59;;;;;;;28.98;15.02;;;;;;;14.73;90.06;101496.88;5053530;28;20025;-63
2021/09/26 01:19:49;;;;;;;25.20;15.75;;;;;;;14.68;89.91;101488.25;5053017;28;20462;-72
2021/09/26 01:22:44;;;;;;;25.55;14.75;;;;;;;14.57;90.02;101483.47;5053992;28;20036;-75
2021/09/26 01:25:31;;;;;;;27.85;16.58;;;;;;;14.47;90.83;101480.41;5052993;28;20037;-63
2021/09/26 01:27:59;;;;;;;28.75;16.48;;;;;;;14.45;91.19;101484.09;5034146;28;20029;-71
2021/09/26 01:30:44;;;;;;;26.45;16.80;;;;;;;14.41;91.20;101481.59;5040072;28;20106;-67
2021/09/26 01:33:19;;;;;;;28.27;16.67;;;;;;;14.38;91.45;101473.75;5053497;28;20500;-63
2021/09/26 01:36:00;;;;;;;27.23;16.02;;;;;;;14.34;91.25;101477.50;5052827;28;20036;-71
2021/09/26 01:38:45;;;;;;;28.13;16.75;;;;;;;14.28;91.26;101477.81;5045879;28;20029;-74
2021/09/26 01:41:10;;;;;;;29.85;16.98;;;;;;;14.26;91.64;101474.38;5053000;28;20024;-63
2021/09/26 01:43:39;;;;;;;29.33;16.77;;;;;;;14.22;91.47;101470.13;5053819;28;20488;-63
2021/09/26 01:46:08;;;;;;;28.20;16.45;;;;;;;14.19;91.75;101467.63;5053779;28;20270;-75
2021/09/26 01:48:42;;;;;;;28.90;17.00;;;;;;;14.17;91.97;101459.72;5053451;28;20495;-75
2021/09/26 01:51:09;;;;;;;28.05;17.00;;;;;;;14.20;92.01;101469.34;5052943;28;20032;-76
2021/09/26 01:53:40;;;;;;;29.27;16.48;;;;;;;14.21;91.90;101471.94;5053442;28;20075;-73
2021/09/26 01:56:07;;;;;;;31.20;16.95;;;;;;;14.21;91.75;101469.28;5053476;28;20473;-74
2021/09/26 01:58:33;;;;;;;28.02;17.58;;;;;;;14.19;91.85;101464.97;5052745;28;20033;-76
2021/09/26 02:00:59;;;;;;;29.38;17.17;;;;;;;14.18;92.29;101465.88;5053136;28;20039;-72
2021/09/26 02:03:25;;;;;;;32.75;18.27;;;;;;;14.25;93.05;101467.31;5053129;28;20047;-71
2021/09/26 02:05:53;;;;;;;29.13;16.67;;;;;;;14.30;92.32;101462.63;5052978;28;20100;-63
2021/09/26 02:08:19;;;;;;;27.67;17.25;;;;;;;14.30;91.89;101467.09;5052693;28;20025;-63
2021/09/26 02:10:47;;;;;;;28.70;17.02;;;;;;;14.24;91.90;101465.59;5053053;28;20104;-66
2021/09/26 02:13:14;;;;;;;27.90;17.02;;;;;;;14.24;92.49;101466.44;5053048;28;20028;-74
2021/09/26 02:15:43;;;;;;;24.95;15.82;;;;;;;14.26;92.17;101458.41;5053234;28;20051;-76
2021/09/26 02:18:09;;;;;;;26.27;16.35;;;;;;;14.28;92.30;101463.63;5052910;28;20525;-76
2021/09/26 02:20:37;;;;;;;26.95;16.65;;;;;;;14.34;92.51;101471.31;5052933;28;20485;-69
2021/09/26 02:23:03;;;;;;;29.33;18.02;;;;;;;14.40;92.60;101471.88;5052394;28;20017;-76
2021/09/26 02:25:29;;;;;;;24.55;17.75;;;;;;;14.43;91.64;101479.69;5042569;28;20111;-76
2021/09/26 02:27:55;;;;;;;27.48;18.55;;;;;;;14.50;92.01;101477.59;5032951;28;20432;-76
2021/09/26 02:30:24;;;;;;;29.85;18.00;;;;;;;14.57;92.20;101472.81;5033072;28;20144;-63
2021/09/26 02:32:49;;;;;;;26.58;16.48;;;;;;;14.61;91.57;101473.53;5052886;28;20036;-72
2021/09/26 02:35:15;;;;;;;27.27;17.05;;;;;;;14.61;91.34;101473.53;5052324;28;20024;-76
2021/09/26 02:37:41;;;;;;;32.70;17.25;;;;;;;14.64;90.96;101460.94;5052417;28;20472;-63
2021/09/26 02:40:08;;;;;;;29.88;18.00;;;;;;;14.63;91.15;101459.16;5053605;28;20048;-60
2021/09/26 02:42:47;;;;;;;33.88;17.15;;;;;;;14.68;91.28;101466.94;5051623;28;20029;-68
2021/09/26 02:45:19;;;;;;;27.10;17.65;;;;;;;14.73;91.04;101467.56;5041152;28;20133;-73
2021/09/26 02:47:55;;;;;;;26.23;16.65;;;;;;;14.80;90.90;101457.47;5049010;28;20048;-72
2021/09/26 02:50:21;;;;;;;29.90;17.67;;;;;;;14.82;90.56;101459.09;5043778;28;20024;-75
2021/09/26 02:52:47;;;;;;;25.90;15.60;;;;;;;14.89;90.21;101465.81;5052156;28;20035;-76
2021/09/26 02:55:15;;;;;;;27.23;16.60;;;;;;;14.89;89.75;101459.63;5052189;28;20025;-76
2021/09/26 02:57:41;;;;;;;26.60;16.15;;;;;;;14.91;89.95;101477.28;5051934;28;20033;-66
2021/09/26 03:00:08;;;;;;;27.05;16.17;;;;;;;14.93;89.74;101468.34;5050851;28;20021;-62
2021/09/26 03:02:34;;;;;;;26.20;16.33;;;;;;;14.94;89.73;101467.41;5051321;28;20116;-61
2021/09/26 03:04:59;;;;;;;26.67;17.05;;;;;;;14.91;89.43;101453.28;5051336;28;20060;-61
2021/09/26 03:07:25;;;;;;;24.88;16.17;;;;;;;14.89;89.56;101452.47;5051354;28;20317;-62
2021/09/26 03:09:50;;;;;;;31.50;17.00;;;;;;;14.85;89.75;101439.41;5052101;28;20120;-61
2021/09/26 03:12:19;;;;;;;26.73;16.75;;;;;;;14.82;90.07;101444.88;5055133;28;20025;-61
2021/09/26 03:14:44;;;;;;;25.58;16.15;;;;;;;14.80;90.26;101447.66;5056116;28;20060;-72
2021/09/26 03:17:10;;;;;;;27.02;16.38;;;;;;;14.79;90.61;101445.91;5056030;28;20055;-73
2021/09/26 03:19:36;;;;;;;28.92;17.15;;;;;;;14.74;91.07;101453.28;5056160;28;20465;-74
2021/09/26 03:22:02;;;;;;;30.20;17.17;;;;;;;14.72;91.03;101445.38;5055338;28;20044;-67
2021/09/26 03:24:28;;;;;;;26.33;15.73;;;;;;;14.73;91.39;101446.22;5055731;28;20021;-73
2021/09/26 03:26:54;;;;;;;29.52;17.25;;;;;;;14.73;91.20;101446.22;5055449;28;20029;-65
2021/09/26 03:29:20;;;;;;;30.25;17.58;;;;;;;14.74;91.24;101445.28;5035914;28;20041;-74
2021/09/26 03:31:45;;;;;;;27.85;17.67;;;;;;;14.77;91.27;101444.28;5040927;28;20041;-61
2021/09/26 03:34:10;;;;;;;27.75;17.70;;;;;;;14.80;91.59;101442.31;5055788;28;20021;-71
2021/09/26 03:36:36;;;;;;;27.00;16.42;;;;;;;14.84;91.01;101435.03;5055488;28;20508;-73
2021/09/26 03:39:01;;;;;;;27.30;16.60;;;;;;;14.86;90.72;101431.31;5055034;28;20462;-62
2021/09/26 03:41:27;;;;;;;27.55;16.67;;;;;;;14.82;91.00;101435.09;5055912;28;20370;-66
2021/09/26 03:43:52;;;;;;;27.15;17.80;;;;;;;14.78;91.13;101428.19;5035942;28;20030;-73
2021/09/26 03:46:17;;;;;;;28.50;17.73;;;;;;;14.78;91.66;101428.19;5043312;28;20377;-69
2021/09/26 03:48:42;;;;;;;27.58;17.45;;;;;;;14.79;91.46;101429.91;5054852;28;20040;-62
2021/09/26 03:51:08;;;;;;;27.90;16.45;;;;;;;14.82;91.00;101427.09;5055872;28;20087;-69
2021/09/26 03:53:33;;;;;;;30.63;17.77;;;;;;;14.80;91.34;101418.31;5054890;28;20274;-73
2021/09/26 03:55:58;;;;;;;28.80;18.00;;;;;;;14.85;91.20;101423.41;5055295;28;20155;-74
2021/09/26 03:58:24;;;;;;;28.70;16.80;;;;;;;14.90;90.91;101429.38;5054963;28;20448;-61
2021/09/26 04:00:49;;;;;;;26.52;17.67;;;;;;;14.95;90.12;101437.97;5054706;28;20036;-72
2021/09/26 04:03:14;;;;;;;29.20;17.75;;;;;;;14.94;89.91;101433.56;5055196;28;20147;-61
2021/09/26 04:05:40;;;;;;;27.50;16.80;;;;;;;14.94;89.94;101420.25;5055296;28;20381;-72
2021/09/26 04:08:05;;;;;;;29.83;17.27;;;;;;;14.95;89.68;101432.63;5054713;28;20364;-65
2021/09/26 04:10:30;;;;;;;27.48;18.52;;;;;;;14.95;90.02;101432.63;5054419;28;20726;-68
2021/09/26 04:12:56;;;;;;;31.27;17.63;;;;;;;14.99;90.08;101428.00;5055048;28;20448;-68
2021/09/26 04:15:21;;;;;;;27.02;17.80;;;;;;;14.99;90.03;101430.69;5054889;28;20036;-74
2021/09/26 04:17:46;;;;;;;25.50;16.27;;;;;;;15.00;89.85;101430.59;5055091;28;20410;-61
2021/09/26 04:20:12;;;;;;;26.05;17.50;;;;;;;15.02;90.01;101422.50;5054247;28;20036;-61
2021/09/26 04:22:37;;;;;;;26.25;16.27;;;;;;;15.04;89.79;101428.63;5054486;28;20024;-69
2021/09/26 04:25:05;;;;;;;25.92;17.50;;;;;;;15.04;89.84;101425.94;5054479;28;20035;-72
2021/09/26 04:27:31;;;;;;;28.50;17.52;;;;;;;15.05;90.02;101431.19;5054565;28;20392;-72
2021/09/26 04:29:56;;;;;;;27.25;18.00;;;;;;;15.05;89.93;101420.53;5054056;28;20039;-62
2021/09/26 04:32:22;;;;;;;25.60;17.83;;;;;;;15.07;89.92;101418.63;5054207;28;20116;-62
2021/09/26 04:34:48;;;;;;;26.85;17.95;;;;;;;15.08;90.03;101416.84;5054304;28;20029;-71
2021/09/26 04:37:14;;;;;;;31.80;18.80;;;;;;;15.11;89.63;101419.31;5054719;28;20051;-61
2021/09/26 04:39:39;;;;;;;30.63;19.23;;;;;;;15.10;90.13;101424.75;5053976;28;20420;-62
2021/09/26 04:42:06;;;;;;;27.75;18.48;;;;;;;15.13;89.90;101425.44;5054099;28;20408;-61
2021/09/26 04:44:32;;;;;;;29.05;19.25;;;;;;;15.19;89.49;101429.56;5054740;28;20048;-65
2021/09/26 04:46:58;;;;;;;27.15;19.00;;;;;;;15.19;89.95;101430.44;5054524;28;20032;-70
2021/09/26 04:49:28;;;;;;;31.67;19.38;;;;;;;15.22;89.85;101430.25;5054196;28;20033;-66
2021/09/26 04:51:57;;;;;;;31.15;19.30;;;;;;;15.23;89.85;101433.81;5054411;28;20134;-62
2021/09/26 04:54:23;;;;;;;26.45;18.50;;;;;;;15.26;89.60;101427.44;5053929;28;20129;-74
2021/09/26 04:56:48;;;;;;;27.58;18.52;;;;;;;15.27;89.74;101423.81;5054129;28;20040;-68
2021/09/26 04:59:15;;;;;;;30.77;18.85;;;;;;;15.27;89.63;101419.34;5053998;28;20024;-63
2021/09/26 05:01:40;;;;;;;29.83;19.65;;;;;;;15.27;90.00;101423.81;5053642;28;20489;-69
2021/09/26 05:04:05;;;;;;;33.95;19.38;;;;;;;15.27;90.24;101426.47;5053832;28;20032;-71
2021/09/26 05:06:31;;;;;;;27.23;18.80;;;;;;;15.28;90.25;101415.75;5054133;28;20098;-73
2021/09/26 05:08:56;;;;;;;27.70;19.55;;;;;;;15.30;90.57;101426.31;5053850;28;20400;-70
2021/09/26 05:11:21;;;;;;;29.00;19.20;;;;;;;15.30;90.37;101421.00;5052971;28;20443;-73
2021/09/26 05:13:47;;;;;;;28.42;19.55;;;;;;;15.31;90.15;101423.56;5053194;28;20035;-69
2021/09/26 05:16:12;;;;;;;26.05;19.42;;;;;;;15.32;90.57;101419.97;5053050;28;20108;-63
2021/09/26 05:18:38;;;;;;;32.63;20.90;;;;;;;15.31;91.05;101425.38;5050919;28;20123;-62
2021/09/26 05:21:04;;;;;;;35.95;21.15;;;;;;;15.29;90.90;101422.78;5051244;28;20101;-62
2021/09/26 05:23:29;;;;;;;33.53;21.52;;;;;;;15.24;91.87;101415.03;5051140;28;20025;-61
2021/09/26 05:25:55;;;;;;;32.70;21.88;;;;;;;15.22;92.18;101416.94;5051584;28;20426;-67
2021/09/26 05:28:20;;;;;;;33.53;21.63;;;;;;;15.21;91.99;101417.03;5051726;28;20020;-61
2021/09/26 05:30:46;;;;;;;33.30;21.85;;;;;;;15.17;92.53;101418.97;5045487;28;20052;-67
2021/09/26 05:33:11;;;;;;;37.72;22.70;;;;;;;15.17;93.01;101423.47;5051609;28;20029;-68
2021/09/26 05:35:37;;;;;;;40.58;24.23;;;;;;;15.16;93.27;101425.25;5051991;28;20470;-61
2021/09/26 05:38:02;;;;;;;38.10;23.25;;;;;;;15.15;93.95;101426.19;5052335;28;20389;-72
2021/09/26 05:40:27;;;;;;;33.67;22.45;;;;;;;15.15;93.64;101425.34;5052364;28;20422;-62
2021/09/26 05:42:53;;;;;;;37.00;23.90;;;;;;;15.16;94.07;101424.41;5051784;28;20120;-68
2021/09/26 05:45:18;;;;;;;36.17;23.85;;;;;;;15.15;94.07;101423.53;5051559;28;20056;-66
2021/09/26 05:47:43;;;;;;;38.90;25.05;;;;;;;15.13;94.21;101419.22;5052446;28;20453;-61
2021/09/26 05:50:10;;;;;;;35.55;23.80;;;;;;;15.17;95.03;101426.13;5052799;28;20100;-66
2021/09/26 05:52:35;;;;;;;40.05;24.58;;;;;;;15.20;94.91;101421.47;5051732;28;20143;-67
2021/09/26 05:55:00;;;;;;;33.17;22.42;;;;;;;15.26;94.54;101425.63;5052452;28;20489;-61
2021/09/26 05:57:26;;;;;;;34.25;22.58;;;;;;;15.31;94.43;101430.72;5051797;28;20032;-67
2021/09/26 05:59:51;;;;;;;36.53;23.60;;;;;;;15.33;94.18;101437.69;5052486;28;20017;-61
2021/09/26 06:02:23;;;;;;;36.20;22.48;;;;;;;15.37;93.77;101433.91;5052442;28;20465;-62
2021/09/26 06:04:52;;;;;;;38.58;23.92;;;;;;;15.39;93.65;101426.66;5061678;28;20028;-62
2021/09/26 06:07:17;;;;;;;38.95;24.48;;;;;;;15.38;94.03;101430.28;5066774;28;20024;-61
2021/09/26 06:09:43;;;;;;;33.40;22.30;;;;;;;15.37;93.43;101422.34;5052219;28;20393;-72
2021/09/26 06:12:12;;;;;;;37.25;24.25;;;;;;;15.37;93.80;101430.34;5052231;28;20021;-69
2021/09/26 06:14:38;;;;;;;32.20;22.48;;;;;;;15.38;93.71;101427.63;5051395;28;20515;-71
2021/09/26 06:17:04;;;;;;;36.17;23.88;;;;;;;15.39;93.86;101423.13;5052111;28;20102;-61
2021/09/26 06:19:30;;;;;;;36.72;21.98;;;;;;;15.42;94.32;101420.28;5051786;28;20025;-62
2021/09/26 06:21:55;;;;;;;31.88;22.17;;;;;;;15.47;93.93;101422.69;5052163;28;20032;-65
2021/09/26 06:24:21;;;;;;;39.45;25.55;;;;;;;15.47;94.73;101434.22;5044461;28;20142;-71
2021/09/26 06:26:46;;;;;;;38.40;24.63;;;;;;;15.48;94.91;101435.09;5045456;28;20047;-70
2021/09/26 06:29:12;;;;;;;34.80;22.85;;;;;;;15.53;94.27;101430.38;5052352;28;20139;-72
2021/09/26 06:31:38;;;;;;;39.33;25.27;;;;;;;15.53;94.48;101425.88;5035587;28;20398;-68
2021/09/26 06:34:04;;;;;;;38.28;23.92;;;;;;;15.56;94.67;101431.06;5033557;28;20108;-64
2021/09/26 06:36:29;;;;;;;39.13;24.83;;;;;;;15.60;95.00;101434.44;5052770;28;20103;-69
2021/09/26 06:38:55;;;;;;;39.75;25.08;;;;;;;15.64;95.44;101429.75;5051380;28;20104;-65
2021/09/26 06:41:22;;;;;;;43.20;25.77;;;;;;;15.70;95.28;101438.28;5052435;28;20037;-70
2021/09/26 06:43:47;;;;;;;38.13;23.67;;;;;;;15.81;95.44;101439.50;5050475;28;20032;-71
2021/09/26 06:46:13;;;;;;;41.13;27.10;;;;;;;15.88;95.54;101436.41;5048596;28;20400;-71
2021/09/26 06:48:38;;;;;;;38.15;25.42;;;;;;;16.01;94.85;101449.03;5045245;28;20056;-68
2021/09/26 06:51:03;;;;;;;34.80;24.35;;;;;;;16.08;94.80;101457.56;5037393;28;20516;-68
2021/09/26 06:53:29;;;;;;;31.80;21.90;;;;;;;16.18;93.54;101458.75;5051768;28;20025;-71
2021/09/26 06:55:54;;;;;;;29.65;21.23;;;;;;;16.30;91.98;101457.16;5052305;28;20040;-65
2021/09/26 06:58:20;;;;;;;28.95;19.98;;;;;;;16.38;90.97;101454.88;5052121;28;20029;-71
2021/09/26 07:00:45;;;;;;;29.40;20.67;;;;;;;16.45;90.31;101463.41;5045793;28;20553;-69
2021/09/26 07:03:11;;;;;;;30.92;20.42;;;;;;;16.49;90.13;101465.78;5048311;28;20040;-70
2021/09/26 07:05:36;;;;;;;29.58;19.85;;;;;;;16.51;89.74;101460.38;5049495;28;20021;-70
2021/09/26 07:08:02;;;;;;;26.52;18.98;;;;;;;16.55;89.63;101453.88;5032266;28;20017;-71
2021/09/26 07:10:27;;;;;;;29.08;20.40;;;;;;;16.64;89.72;101463.19;5031976;28;20022;-71
2021/09/26 07:12:52;;;;;;;28.52;19.27;;;;;;;16.80;89.41;101465.75;5043206;28;20041;-71
2021/09/26 07:15:18;;;;;;;27.38;17.98;;;;;;;16.98;88.56;101462.00;5051801;28;20028;-68
2021/09/26 07:17:43;;;;;;;24.50;18.45;;;;;;;17.16;87.58;101469.81;5051719;28;20017;-67
2021/09/26 07:20:09;;;;;;;25.95;16.67;;;;;;;17.29;86.52;101456.50;5050731;28;20036;-68
2021/09/26 07:22:34;;;;;;;22.52;17.40;;;;;;;17.45;85.85;101459.94;5051145;28;20117;-66
2021/09/26 07:25:00;;;;;;;25.23;17.33;;;;;;;17.52;85.05;101466.63;5051403;28;20041;-67
2021/09/26 07:27:25;;;;;;;29.52;18.67;;;;;;;17.47;84.20;101470.56;5038962;28;20021;-69
2021/09/26 07:29:55;;;;;;;24.98;17.77;;;;;;;17.42;84.65;101462.81;5037155;28;20036;-70
2021/09/26 07:32:21;;;;;;;24.05;16.98;;;;;;;17.47;83.82;101473.25;5051802;28;20056;-71
2021/09/26 07:34:46;;;;;;;23.52;16.73;;;;;;;17.49;83.82;101458.81;5051930;28;20449;-64
2021/09/26 07:37:12;;;;;;;26.52;18.60;;;;;;;17.47;83.03;101459.84;5051979;28;20020;-71
2021/09/26 07:39:38;;;;;;;26.92;17.67;;;;;;;17.49;82.98;101458.81;5051393;28;20070;-71
2021/09/26 07:42:04;;;;;;;23.67;16.83;;;;;;;17.51;83.04;101456.88;5040593;28;20055;-64
2021/09/26 07:44:29;;;;;;;23.60;17.50;;;;;;;17.54;82.78;101453.13;5051959;28;20044;-71
2021/09/26 07:46:55;;;;;;;23.45;17.92;;;;;;;17.63;82.35;101454.34;5043167;28;20069;-71
2021/09/26 07:49:20;;;;;;;22.58;17.35;;;;;;;17.67;81.90;101454.06;5033413;28;20418;-70
2021/09/26 07:51:46;;;;;;;24.45;17.30;;;;;;;17.75;82.28;101460.72;5032048;28;20029;-71
2021/09/26 07:54:13;;;;;;;23.60;17.38;;;;;;;17.88;81.98;101471.50;5034853;28;20469;-71
2021/09/26 07:56:38;;;;;;;23.90;16.67;;;;;;;18.04;80.39;101482.97;5051080;28;20029;-70
2021/09/26 07:59:04;;;;;;;23.27;16.00;;;;;;;18.26;79.76;101489.56;5055028;28;20043;-65
2021/09/26 08:01:29;;;;;;;20.88;16.02;;;;;;;18.48;79.17;101491.69;5054495;28;20465;-69
2021/09/26 08:03:54;;;;;;;24.90;15.93;;;;;;;18.73;78.13;101503.41;5055193;28;20478;-72
2021/09/26 08:06:19;;;;;;;21.92;15.32;;;;;;;18.83;76.75;101517.91;5055304;28;20111;-72
2021/09/26 08:08:45;;;;;;;24.92;15.10;;;;;;;18.85;75.63;101521.34;5054946;28;20381;-70
2021/09/26 08:11:10;;;;;;;22.58;15.52;;;;;;;18.92;75.77;101521.81;5055562;28;20071;-70
2021/09/26 08:13:36;;;;;;;22.52;15.95;;;;;;;19.01;75.85;101505.06;5055289;28;20025;-68
2021/09/26 08:16:02;;;;;;;22.35;16.02;;;;;;;19.18;75.07;101498.47;5054153;28;20025;-71
2021/09/26 08:18:27;;;;;;;22.42;15.75;;;;;;;19.19;73.65;101510.09;5055384;28;20021;-71
2021/09/26 08:20:53;;;;;;;21.17;14.90;;;;;;;19.34;74.12;101511.69;5054787;28;20044;-68
2021/09/26 08:23:18;;;;;;;23.98;16.27;;;;;;;19.52;74.66;101508.66;5044310;28;20029;-72
2021/09/26 08:25:44;;;;;;;21.00;15.20;;;;;;;19.75;72.06;101496.25;5032450;28;20033;-67
2021/09/26 08:28:10;;;;;;;20.65;14.75;;;;;;;19.95;72.61;101502.88;5040157;28;20445;-61
2021/09/26 08:30:35;;;;;;;22.05;15.98;;;;;;;20.14;72.70;101519.34;5050584;28;20049;-61
2021/09/26 08:33:01;;;;;;;22.38;14.30;;;;;;;20.27;71.63;101518.44;5049012;28;20408;-61
2021/09/26 08:35:26;;;;;;;21.30;15.25;;;;;;;20.35;71.41;101507.94;5040311;28;20025;-62
2021/09/26 08:37:51;;;;;;;19.88;14.95;;;;;;;20.49;70.76;101503.31;5040438;28;20029;-68
2021/09/26 08:40:17;;;;;;;20.23;14.93;;;;;;;20.73;69.98;101509.56;5050241;28;20036;-63
2021/09/26 08:42:42;;;;;;;22.48;16.08;;;;;;;21.06;70.12;101509.72;5050523;28;20032;-60
2021/09/26 08:45:12;;;;;;;18.60;14.35;;;;;;;21.30;67.92;101512.28;5050302;28;20036;-60
2021/09/26 08:47:39;;;;;;;20.33;14.82;;;;;;;21.57;65.22;101511.09;5049690;28;20100;-71
2021/09/26 08:50:09;;;;;;;21.90;14.77;;;;;;;21.58;64.68;101512.81;5049923;28;20025;-59
2021/09/26 08:52:35;;;;;;;22.00;15.65;;;;;;;21.34;64.03;101508.38;5050461;28;20108;-59
2021/09/26 08:55:01;;;;;;;20.10;16.08;;;;;;;21.08;64.55;101514.00;5050700;28;20132;-72
2021/09/26 08:57:26;;;;;;;21.13;16.23;;;;;;;20.94;65.17;101508.84;5050129;28;20576;-62
2021/09/26 08:59:53;;;;;;;20.58;16.05;;;;;;;20.85;67.22;101512.28;5050413;28;20382;-62
2021/09/26 09:02:18;;;;;;;20.63;15.18;;;;;;;20.83;66.52;101506.13;5049403;28;20021;-66
2021/09/26 09:04:43;;;;;;;18.63;14.07;;;;;;;20.78;66.57;101511.88;5049482;28;20395;-62
2021/09/26 09:07:11;;;;;;;19.67;14.85;;;;;;;20.71;66.92;101519.56;5054113;28;20092;-71
2021/09/26 09:09:49;;;;;;;21.17;14.80;;;;;;;20.52;66.27;101520.09;5054209;28;20036;-59
2021/09/26 09:12:15;;;;;;;22.15;15.18;;;;;;;20.41;67.26;101514.66;5049936;28;20541;-60
2021/09/26 09:14:49;;;;;;;17.73;14.15;;;;;;;20.37;68.44;101529.31;5046938;28;20351;-62
2021/09/26 09:17:34;;;;;;;19.33;14.80;;;;;;;20.35;68.86;101526.75;5033273;28;20523;-62
2021/09/26 09:20:38;;;;;;;19.80;14.50;;;;;;;20.40;69.32;101527.28;5048417;28;20060;-62
2021/09/26 09:23:06;;;;;;;19.17;13.40;;;;;;;20.46;68.38;101523.25;5038087;28;20064;-60
2021/09/26 09:25:34;;;;;;;18.42;13.32;;;;;;;20.49;68.56;101528.41;5046600;28;20142;-61
2021/09/26 09:28:00;;;;;;;20.55;14.55;;;;;;;20.45;67.50;101533.16;5043888;28;20098;-62
2021/09/26 09:30:33;;;;;;;17.83;14.13;;;;;;;20.48;68.08;101539.28;5043789;28;20065;-64
2021/09/26 09:33:00;;;;;;;19.63;13.52;;;;;;;20.56;67.60;101535.03;5048506;28;20131;-62
2021/09/26 09:35:29;;;;;;;16.48;13.02;;;;;;;20.65;67.26;101536.16;5046762;28;20124;-72
2021/09/26 09:37:55;;;;;;;17.95;14.75;;;;;;;20.71;67.32;101543.78;5045953;28;20043;-62
2021/09/26 09:40:21;;;;;;;20.67;14.55;;;;;;;20.86;66.49;101532.84;5041368;28;20574;-62
2021/09/26 09:42:48;;;;;;;18.60;14.77;;;;;;;20.98;64.60;101536.41;5050201;28;20048;-61
2021/09/26 09:45:24;;;;;;;17.33;13.50;;;;;;;21.17;65.20;101544.75;5031668;28;20097;-64
2021/09/26 09:48:00;;;;;;;17.42;13.50;;;;;;;21.26;63.96;101538.63;5045278;28;20120;-62
2021/09/26 09:50:48;;;;;;;25.50;14.30;;;;;;;21.48;63.87;101542.28;5046722;28;20029;-62
2021/09/26 09:53:41;;;;;;;22.17;15.13;;;;;;;21.77;64.32;101537.28;5046483;28;20109;-63
2021/09/26 09:56:18;;;;;;;22.23;14.75;;;;;;;22.10;61.56;101538.19;5046868;28;20346;-60
2021/09/26 09:58:50;;;;;;;19.88;13.20;;;;;;;22.35;61.32;101543.38;5049091;28;20025;-72
2021/09/26 10:01:23;;;;;;;18.83;12.85;;;;;;;22.45;61.47;101541.66;5048000;28;20036;-65
2021/09/26 10:03:49;;;;;;;19.30;13.63;;;;;;;22.47;60.72;101534.28;5048405;28;20175;-60
2021/09/26 10:06:20;;;;;;;19.63;14.40;;;;;;;22.41;60.85;101548.28;5048712;28;20048;-65
2021/09/26 10:08:46;;;;;;;;;;;;;;;22.81;61.09;101547.59;5048998;28;20072;-61
2021/09/26 10:11:12;;;;;;;19.25;13.57;;;;;;;23.45;59.34;101536.75;5044716;28;19990;-62
2021/09/26 10:13:37;;;;;;;20.08;14.45;;;;;;;23.92;55.90;101550.56;5048197;28;20036;-63
2021/09/26 10:16:07;;;;;;;26.65;15.27;;;;;;;24.28;55.58;101541.94;5047654;28;20151;-65
2021/09/26 10:18:37;;;;;;;20.50;14.38;;;;;;;25.03;55.04;101545.72;5048037;28;20147;-65
2021/09/26 10:21:04;;;;;;;19.48;14.73;;;;;;;25.69;50.87;101537.63;5048001;28;20047;-71
2021/09/26 10:23:30;;;;;;;17.42;12.48;;;;;;;26.53;49.75;101541.06;5046802;28;20028;-62
2021/09/26 10:25:57;;;;;;;16.05;11.50;;;;;;;27.18;48.10;101541.72;5029460;28;20025;-63
2021/09/26 10:28:27;;;;;;;17.75;12.63;;;;;;;27.79;46.09;101545.25;5048320;28;20017;-61
2021/09/26 10:30:59;;;;;;;17.08;12.88;;;;;;;27.91;46.41;101545.78;5046599;28;20048;-63
2021/09/26 10:33:26;;;;;;;18.83;12.85;;;;;;;27.40;46.27;101540.34;5047621;28;20105;-65
2021/09/26 10:35:53;;;;;;;15.13;11.50;;;;;;;27.60;44.64;101549.09;5048750;28;20132;-63
2021/09/26 10:38:20;;;;;;;15.48;10.80;;;;;;;28.14;44.88;101550.66;5046190;28;20029;-62
2021/09/26 10:40:46;;;;;;;16.60;12.65;;;;;;;27.92;44.59;101548.34;5043285;28;20037;-73
2021/09/26 10:43:27;;;;;;;17.13;11.07;;;;;;;27.82;45.21;101558.53;5043455;28;20035;-66
2021/09/26 10:46:11;;;;;;;16.30;11.10;;;;;;;27.26;44.82;101556.19;5045781;28;20158;-62
2021/09/26 10:48:55;;;;;;;13.63;11.13;;;;;;;26.86;45.74;101551.38;5047519;28;20025;-68
2021/09/26 10:51:53;;;;;;;15.30;11.00;;;;;;;27.23;46.42;101548.38;5048221;28;20111;-64
2021/09/26 10:54:22;;;;;;;13.05;10.60;;;;;;;27.76;43.69;101551.00;5045796;28;20044;-70
2021/09/26 10:57:03;;;;;;;12.52;10.30;;;;;;;28.28;43.87;101549.97;5048002;28;20065;-62
2021/09/26 10:59:43;;;;;;;13.23;10.45;;;;;;;28.78;41.69;101543.50;5047445;28;20025;-68
2021/09/26 11:02:23;;;;;;;12.80;9.30;;;;;;;29.21;41.88;101536.97;5047801;28;20025;-62
2021/09/26 11:04:50;;;;;;;12.85;9.38;;;;;;;28.93;40.54;101549.13;5047583;28;20120;-63
2021/09/26 11:07:23;;;;;;;12.65;8.88;;;;;;;28.99;40.79;101544.88;5032566;28;20378;-67
2021/09/26 11:09:53;;;;;;;13.88;9.80;;;;;;;28.81;40.93;101541.47;5047120;28;20108;-65
2021/09/26 11:12:37;;;;;;;15.90;11.55;;;;;;;28.44;40.75;101540.94;5047993;28;20035;-67